sensor_id;sensor_type;location;lat;lon;timestamp;temperature;humidity
27164;DHT22;14685;50.618;7.024;2023-12-20T00:02:20;9.90;99.90
27164;DHT22;14685;50.618;7.024;2023-12-20T00:04:48;9.90;99.90
27164;DHT22;14685;50.618;7.024;2023-12-20T00:07:15;9.90;99.90
27164;DHT22;14685;50.618;7.024;2023-12-20T00:09:42;10.00;99.90
27164;DHT22;14685;50.618;7.024;2023-12-20T00:12:10;10.00;99.90
27164;DHT22;14685;50.618;7.024;2023-12-20T00:14:37;10.00;99.90
27164;DHT22;14685;50.618;7.024;2023-12-20T00:17:04;10.00;99.90
27164;DHT22;14685;50.618;7.024;2023-12-20T00:19:31;10.00;99.90
27164;DHT22;14685;50.618;7.024;2023-12-20T00:21:58;10.00;99.90
27164;DHT22;14685;50.618;7.024;2023-12-20T00:24:26;10.00;99.90
27164;DHT22;14685;50.618;7.024;2023-12-20T00:26:53;9.90;99.90
27164;DHT22;14685;50.618;7.024;2023-12-20T00:29:20;9.90;99.90
27164;DHT22;14685;50.618;7.024;2023-12-20T00:31:47;10.00;99.90
27164;DHT22;14685;50.618;7.024;2023-12-20T00:34:14;10.00;99.90
27164;DHT22;14685;50.618;7.024;2023-12-20T00:36:41;10.00;99.90
27164;DHT22;14685;50.618;7.024;2023-12-20T00:39:08;10.00;99.90
27164;DHT22;14685;50.618;7.024;2023-12-20T00:41:34;10.00;99.90
27164;DHT22;14685;50.618;7.024;2023-12-20T00:44:01;10.00;99.90
27164;DHT22;14685;50.618;7.024;2023-12-20T00:46:29;10.10;99.90
27164;DHT22;14685;50.618;7.024;2023-12-20T00:48:56;10.00;99.90
27164;DHT22;14685;50.618;7.024;2023-12-20T00:51:23;10.00;99.90
27164;DHT22;14685;50.618;7.024;2023-12-20T00:53:51;10.00;99.90
27164;DHT22;14685;50.618;7.024;2023-12-20T00:56:21;10.00;99.90
27164;DHT22;14685;50.618;7.024;2023-12-20T00:58:48;10.00;99.90
27164;DHT22;14685;50.618;7.024;2023-12-20T01:01:15;10.00;99.90
27164;DHT22;14685;50.618;7.024;2023-12-20T01:03:42;10.10;99.90
27164;DHT22;14685;50.618;7.024;2023-12-20T01:06:09;10.00;99.90
27164;DHT22;14685;50.618;7.024;2023-12-20T01:08:37;10.10;99.90
27164;DHT22;14685;50.618;7.024;2023-12-20T01:11:05;10.10;99.90
27164;DHT22;14685;50.618;7.024;2023-12-20T01:13:32;10.10;99.90
27164;DHT22;14685;50.618;7.024;2023-12-20T01:15:59;10.10;99.90
27164;DHT22;14685;50.618;7.024;2023-12-20T01:18:26;10.10;99.90
27164;DHT22;14685;50.618;7.024;2023-12-20T01:20:53;10.10;99.90
27164;DHT22;14685;50.618;7.024;2023-12-20T01:23:20;10.10;99.90
27164;DHT22;14685;50.618;7.024;2023-12-20T01:25:48;10.10;99.90
27164;DHT22;14685;50.618;7.024;2023-12-20T01:28:15;10.10;99.90
27164;DHT22;14685;50.618;7.024;2023-12-20T01:30:42;10.10;99.90
27164;DHT22;14685;50.618;7.024;2023-12-20T01:33:09;10.10;99.90
27164;DHT22;14685;50.618;7.024;2023-12-20T01:35:36;10.10;99.90
27164;DHT22;14685;50.618;7.024;2023-12-20T01:38:04;10.10;99.90
27164;DHT22;14685;50.618;7.024;2023-12-20T01:40:30;10.10;99.90
27164;DHT22;14685;50.618;7.024;2023-12-20T01:43:08;10.10;99.90
27164;DHT22;14685;50.618;7.024;2023-12-20T01:45:35;10.10;99.90
27164;DHT22;14685;50.618;7.024;2023-12-20T01:48:04;10.10;99.90
27164;DHT22;14685;50.618;7.024;2023-12-20T01:50:32;10.10;99.90
27164;DHT22;14685;50.618;7.024;2023-12-20T01:53:01;10.10;99.90
27164;DHT22;14685;50.618;7.024;2023-12-20T01:55:31;10.10;99.90
27164;DHT22;14685;50.618;7.024;2023-12-20T01:57:59;10.10;99.90
27164;DHT22;14685;50.618;7.024;2023-12-20T02:00:27;10.10;99.90
27164;DHT22;14685;50.618;7.024;2023-12-20T02:02:55;10.10;99.90
27164;DHT22;14685;50.618;7.024;2023-12-20T02:05:23;10.10;99.90
27164;DHT22;14685;50.618;7.024;2023-12-20T02:07:51;10.10;99.90
27164;DHT22;14685;50.618;7.024;2023-12-20T02:10:18;10.10;99.90
27164;DHT22;14685;50.618;7.024;2023-12-20T02:12:45;10.10;99.90
27164;DHT22;14685;50.618;7.024;2023-12-20T02:15:12;10.10;99.90
27164;DHT22;14685;50.618;7.024;2023-12-20T02:17:41;10.10;99.90
27164;DHT22;14685;50.618;7.024;2023-12-20T02:20:08;10.10;99.90
27164;DHT22;14685;50.618;7.024;2023-12-20T02:22:35;10.00;99.90
27164;DHT22;14685;50.618;7.024;2023-12-20T02:25:03;10.00;99.90
27164;DHT22;14685;50.618;7.024;2023-12-20T02:27:30;10.00;99.90
27164;DHT22;14685;50.618;7.024;2023-12-20T02:29:57;10.00;99.90
27164;DHT22;14685;50.618;7.024;2023-12-20T02:32:25;9.90;99.90
27164;DHT22;14685;50.618;7.024;2023-12-20T02:34:53;9.80;99.90
27164;DHT22;14685;50.618;7.024;2023-12-20T02:37:21;9.70;99.90
27164;DHT22;14685;50.618;7.024;2023-12-20T02:39:49;9.70;99.90
27164;DHT22;14685;50.618;7.024;2023-12-20T02:42:16;9.60;99.90
27164;DHT22;14685;50.618;7.024;2023-12-20T02:44:43;9.60;99.90
27164;DHT22;14685;50.618;7.024;2023-12-20T02:47:10;9.60;99.90
27164;DHT22;14685;50.618;7.024;2023-12-20T02:49:37;9.70;99.90
27164;DHT22;14685;50.618;7.024;2023-12-20T02:52:04;9.60;99.90
27164;DHT22;14685;50.618;7.024;2023-12-20T02:54:31;9.60;99.90
27164;DHT22;14685;50.618;7.024;2023-12-20T02:56:58;9.60;99.90
27164;DHT22;14685;50.618;7.024;2023-12-20T02:59:25;9.60;99.90
27164;DHT22;14685;50.618;7.024;2023-12-20T03:01:52;9.60;99.90
27164;DHT22;14685;50.618;7.024;2023-12-20T03:04:19;9.50;99.90
27164;DHT22;14685;50.618;7.024;2023-12-20T03:06:46;9.50;99.90
27164;DHT22;14685;50.618;7.024;2023-12-20T03:09:13;9.50;99.90
27164;DHT22;14685;50.618;7.024;2023-12-20T03:11:40;9.50;99.90
27164;DHT22;14685;50.618;7.024;2023-12-20T03:14:07;9.50;99.90
27164;DHT22;14685;50.618;7.024;2023-12-20T03:16:34;9.50;99.90
27164;DHT22;14685;50.618;7.024;2023-12-20T03:19:02;9.50;99.90
27164;DHT22;14685;50.618;7.024;2023-12-20T03:21:29;9.50;99.90
27164;DHT22;14685;50.618;7.024;2023-12-20T03:23:57;9.50;99.90
27164;DHT22;14685;50.618;7.024;2023-12-20T03:26:24;9.50;99.90
27164;DHT22;14685;50.618;7.024;2023-12-20T03:28:51;9.50;99.90
27164;DHT22;14685;50.618;7.024;2023-12-20T03:31:18;9.50;99.90
27164;DHT22;14685;50.618;7.024;2023-12-20T03:33:46;9.50;99.90
27164;DHT22;14685;50.618;7.024;2023-12-20T03:36:13;9.50;99.90
27164;DHT22;14685;50.618;7.024;2023-12-20T03:38:40;9.50;99.90
27164;DHT22;14685;50.618;7.024;2023-12-20T03:41:07;9.40;99.90
27164;DHT22;14685;50.618;7.024;2023-12-20T03:43:34;9.50;99.90
27164;DHT22;14685;50.618;7.024;2023-12-20T03:46:03;9.50;99.90
27164;DHT22;14685;50.618;7.024;2023-12-20T03:48:31;9.40;99.90
27164;DHT22;14685;50.618;7.024;2023-12-20T03:50:58;9.50;99.90
27164;DHT22;14685;50.618;7.024;2023-12-20T03:53:25;9.50;99.90
27164;DHT22;14685;50.618;7.024;2023-12-20T03:55:51;9.50;99.90
27164;DHT22;14685;50.618;7.024;2023-12-20T03:58:18;9.50;99.90
27164;DHT22;14685;50.618;7.024;2023-12-20T04:00:45;9.50;99.90
27164;DHT22;14685;50.618;7.024;2023-12-20T04:03:13;9.50;99.90
27164;DHT22;14685;50.618;7.024;2023-12-20T04:05:41;9.50;99.90
27164;DHT22;14685;50.618;7.024;2023-12-20T04:08:09;9.50;99.90
27164;DHT22;14685;50.618;7.024;2023-12-20T04:10:36;9.50;99.90
27164;DHT22;14685;50.618;7.024;2023-12-20T04:13:04;9.50;99.90
27164;DHT22;14685;50.618;7.024;2023-12-20T04:15:31;9.50;99.90
27164;DHT22;14685;50.618;7.024;2023-12-20T04:17:58;9.50;99.90
27164;DHT22;14685;50.618;7.024;2023-12-20T04:20:25;9.50;99.90
27164;DHT22;14685;50.618;7.024;2023-12-20T04:22:52;9.40;99.90
27164;DHT22;14685;50.618;7.024;2023-12-20T04:25:20;9.40;99.90
27164;DHT22;14685;50.618;7.024;2023-12-20T04:27:47;9.40;99.90
27164;DHT22;14685;50.618;7.024;2023-12-20T04:30:14;9.40;99.90
27164;DHT22;14685;50.618;7.024;2023-12-20T04:32:41;9.40;99.90
27164;DHT22;14685;50.618;7.024;2023-12-20T04:35:08;9.40;99.90
27164;DHT22;14685;50.618;7.024;2023-12-20T04:37:35;9.40;99.90
27164;DHT22;14685;50.618;7.024;2023-12-20T04:40:03;9.40;99.90
27164;DHT22;14685;50.618;7.024;2023-12-20T04:42:32;9.40;99.90
27164;DHT22;14685;50.618;7.024;2023-12-20T04:44:59;9.40;99.90
27164;DHT22;14685;50.618;7.024;2023-12-20T04:47:26;9.40;99.90
27164;DHT22;14685;50.618;7.024;2023-12-20T04:49:52;9.40;99.90
27164;DHT22;14685;50.618;7.024;2023-12-20T04:52:20;9.30;99.90
27164;DHT22;14685;50.618;7.024;2023-12-20T04:54:47;9.30;99.90
27164;DHT22;14685;50.618;7.024;2023-12-20T04:57:13;9.30;99.90
27164;DHT22;14685;50.618;7.024;2023-12-20T04:59:40;9.30;99.90
27164;DHT22;14685;50.618;7.024;2023-12-20T05:02:08;9.30;99.90
27164;DHT22;14685;50.618;7.024;2023-12-20T05:04:36;9.30;99.90
27164;DHT22;14685;50.618;7.024;2023-12-20T05:07:03;9.30;99.90
27164;DHT22;14685;50.618;7.024;2023-12-20T05:09:32;9.30;99.90
27164;DHT22;14685;50.618;7.024;2023-12-20T05:12:00;9.30;99.90
27164;DHT22;14685;50.618;7.024;2023-12-20T05:14:27;9.30;99.90
27164;DHT22;14685;50.618;7.024;2023-12-20T05:16:54;9.30;99.90
27164;DHT22;14685;50.618;7.024;2023-12-20T05:19:21;9.30;99.90
27164;DHT22;14685;50.618;7.024;2023-12-20T05:21:48;9.30;99.90
27164;DHT22;14685;50.618;7.024;2023-12-20T05:24:15;9.30;99.90
27164;DHT22;14685;50.618;7.024;2023-12-20T05:26:42;9.40;99.90
27164;DHT22;14685;50.618;7.024;2023-12-20T05:29:08;9.50;99.90
27164;DHT22;14685;50.618;7.024;2023-12-20T05:31:35;9.50;99.90
27164;DHT22;14685;50.618;7.024;2023-12-20T05:34:02;9.50;99.90
27164;DHT22;14685;50.618;7.024;2023-12-20T05:36:29;9.50;99.90
27164;DHT22;14685;50.618;7.024;2023-12-20T05:38:56;9.50;99.90
27164;DHT22;14685;50.618;7.024;2023-12-20T05:41:23;9.60;99.90
27164;DHT22;14685;50.618;7.024;2023-12-20T05:43:50;9.60;99.90
27164;DHT22;14685;50.618;7.024;2023-12-20T05:46:17;9.70;99.90
27164;DHT22;14685;50.618;7.024;2023-12-20T05:48:44;9.70;99.90
27164;DHT22;14685;50.618;7.024;2023-12-20T05:51:12;9.60;99.90
27164;DHT22;14685;50.618;7.024;2023-12-20T05:53:40;9.80;99.90
27164;DHT22;14685;50.618;7.024;2023-12-20T05:56:07;10.00;99.90
27164;DHT22;14685;50.618;7.024;2023-12-20T05:58:33;10.00;99.90
27164;DHT22;14685;50.618;7.024;2023-12-20T06:01:00;10.00;99.90
27164;DHT22;14685;50.618;7.024;2023-12-20T06:03:28;9.90;99.90
27164;DHT22;14685;50.618;7.024;2023-12-20T06:05:55;9.90;99.90
27164;DHT22;14685;50.618;7.024;2023-12-20T06:08:39;9.80;99.90
27164;DHT22;14685;50.618;7.024;2023-12-20T06:11:06;9.70;99.90
27164;DHT22;14685;50.618;7.024;2023-12-20T06:13:33;9.70;99.90
27164;DHT22;14685;50.618;7.024;2023-12-20T06:16:00;9.70;99.90
27164;DHT22;14685;50.618;7.024;2023-12-20T06:18:27;9.60;99.90
27164;DHT22;14685;50.618;7.024;2023-12-20T06:20:55;9.50;99.90
27164;DHT22;14685;50.618;7.024;2023-12-20T06:23:22;9.50;99.90
27164;DHT22;14685;50.618;7.024;2023-12-20T06:25:48;9.50;99.90
27164;DHT22;14685;50.618;7.024;2023-12-20T06:28:15;9.50;99.90
27164;DHT22;14685;50.618;7.024;2023-12-20T06:30:42;9.50;99.90
27164;DHT22;14685;50.618;7.024;2023-12-20T06:33:11;9.50;99.90
27164;DHT22;14685;50.618;7.024;2023-12-20T06:35:40;9.40;99.90
27164;DHT22;14685;50.618;7.024;2023-12-20T06:38:08;9.40;99.90
27164;DHT22;14685;50.618;7.024;2023-12-20T06:40:36;9.40;99.90
27164;DHT22;14685;50.618;7.024;2023-12-20T06:43:03;9.40;99.90
27164;DHT22;14685;50.618;7.024;2023-12-20T06:45:42;9.40;99.90
27164;DHT22;14685;50.618;7.024;2023-12-20T06:48:11;9.40;99.90
27164;DHT22;14685;50.618;7.024;2023-12-20T06:50:40;9.30;99.90
27164;DHT22;14685;50.618;7.024;2023-12-20T06:53:07;9.30;99.90
27164;DHT22;14685;50.618;7.024;2023-12-20T06:55:35;9.30;99.90
27164;DHT22;14685;50.618;7.024;2023-12-20T06:58:04;9.20;99.90
27164;DHT22;14685;50.618;7.024;2023-12-20T07:00:32;9.20;99.90
27164;DHT22;14685;50.618;7.024;2023-12-20T07:02:59;9.30;99.90
27164;DHT22;14685;50.618;7.024;2023-12-20T07:05:26;9.20;99.90
27164;DHT22;14685;50.618;7.024;2023-12-20T07:07:53;9.20;99.90
27164;DHT22;14685;50.618;7.024;2023-12-20T07:10:20;9.20;99.90
27164;DHT22;14685;50.618;7.024;2023-12-20T07:12:47;9.20;99.90
27164;DHT22;14685;50.618;7.024;2023-12-20T07:15:15;9.20;99.90
27164;DHT22;14685;50.618;7.024;2023-12-20T07:17:42;9.20;99.90
27164;DHT22;14685;50.618;7.024;2023-12-20T07:20:11;9.20;99.90
27164;DHT22;14685;50.618;7.024;2023-12-20T07:22:38;9.20;99.90
27164;DHT22;14685;50.618;7.024;2023-12-20T07:25:06;9.10;99.90
27164;DHT22;14685;50.618;7.024;2023-12-20T07:27:33;9.10;99.90
27164;DHT22;14685;50.618;7.024;2023-12-20T07:30:00;9.10;99.90
27164;DHT22;14685;50.618;7.024;2023-12-20T07:32:27;9.20;99.90
27164;DHT22;14685;50.618;7.024;2023-12-20T07:34:54;9.20;99.90
27164;DHT22;14685;50.618;7.024;2023-12-20T07:37:23;9.20;99.90
27164;DHT22;14685;50.618;7.024;2023-12-20T07:39:49;9.30;99.90
27164;DHT22;14685;50.618;7.024;2023-12-20T07:42:16;9.30;99.90
27164;DHT22;14685;50.618;7.024;2023-12-20T07:44:43;9.30;99.90
27164;DHT22;14685;50.618;7.024;2023-12-20T07:47:10;9.30;99.90
27164;DHT22;14685;50.618;7.024;2023-12-20T07:49:40;9.30;99.90
27164;DHT22;14685;50.618;7.024;2023-12-20T07:52:07;9.30;99.90
27164;DHT22;14685;50.618;7.024;2023-12-20T07:54:35;9.30;99.90
27164;DHT22;14685;50.618;7.024;2023-12-20T07:57:02;9.30;99.90
27164;DHT22;14685;50.618;7.024;2023-12-20T07:59:28;9.30;99.90
27164;DHT22;14685;50.618;7.024;2023-12-20T08:01:59;9.30;99.90
27164;DHT22;14685;50.618;7.024;2023-12-20T08:04:27;9.30;99.90
27164;DHT22;14685;50.618;7.024;2023-12-20T08:06:54;9.30;99.90
27164;DHT22;14685;50.618;7.024;2023-12-20T08:09:21;9.30;99.90
27164;DHT22;14685;50.618;7.024;2023-12-20T08:11:48;9.30;99.90
27164;DHT22;14685;50.618;7.024;2023-12-20T08:14:16;9.30;99.90
27164;DHT22;14685;50.618;7.024;2023-12-20T08:16:43;9.30;99.90
27164;DHT22;14685;50.618;7.024;2023-12-20T08:19:09;9.30;99.90
27164;DHT22;14685;50.618;7.024;2023-12-20T08:21:37;9.20;99.90
27164;DHT22;14685;50.618;7.024;2023-12-20T08:24:05;9.20;99.90
27164;DHT22;14685;50.618;7.024;2023-12-20T08:26:33;9.20;99.90
27164;DHT22;14685;50.618;7.024;2023-12-20T08:29:00;9.20;99.90
27164;DHT22;14685;50.618;7.024;2023-12-20T08:31:28;9.20;99.90
27164;DHT22;14685;50.618;7.024;2023-12-20T08:33:55;9.20;99.90
27164;DHT22;14685;50.618;7.024;2023-12-20T08:36:24;9.20;99.90
27164;DHT22;14685;50.618;7.024;2023-12-20T08:38:51;9.10;99.90
27164;DHT22;14685;50.618;7.024;2023-12-20T08:41:18;9.00;99.90
27164;DHT22;14685;50.618;7.024;2023-12-20T08:43:46;9.00;99.90
27164;DHT22;14685;50.618;7.024;2023-12-20T08:46:15;9.00;99.90
27164;DHT22;14685;50.618;7.024;2023-12-20T08:48:42;9.00;99.90
27164;DHT22;14685;50.618;7.024;2023-12-20T08:51:12;9.00;99.90
27164;DHT22;14685;50.618;7.024;2023-12-20T08:53:39;8.90;99.90
27164;DHT22;14685;50.618;7.024;2023-12-20T08:56:06;8.90;99.90
27164;DHT22;14685;50.618;7.024;2023-12-20T08:58:33;8.90;99.90
27164;DHT22;14685;50.618;7.024;2023-12-20T09:01:03;8.90;99.90
27164;DHT22;14685;50.618;7.024;2023-12-20T09:03:30;8.90;99.90
27164;DHT22;14685;50.618;7.024;2023-12-20T09:05:58;9.10;99.90
27164;DHT22;14685;50.618;7.024;2023-12-20T09:08:25;9.20;99.90
27164;DHT22;14685;50.618;7.024;2023-12-20T09:10:53;9.40;99.90
27164;DHT22;14685;50.618;7.024;2023-12-20T09:13:20;9.50;99.90
27164;DHT22;14685;50.618;7.024;2023-12-20T09:15:49;9.60;99.90
27164;DHT22;14685;50.618;7.024;2023-12-20T09:18:16;9.70;99.90
27164;DHT22;14685;50.618;7.024;2023-12-20T09:20:43;9.80;99.90
27164;DHT22;14685;50.618;7.024;2023-12-20T09:23:13;9.80;99.90
27164;DHT22;14685;50.618;7.024;2023-12-20T09:25:40;9.90;99.90
27164;DHT22;14685;50.618;7.024;2023-12-20T09:28:06;10.00;99.90
27164;DHT22;14685;50.618;7.024;2023-12-20T09:30:33;10.00;99.90
27164;DHT22;14685;50.618;7.024;2023-12-20T09:33:02;10.10;99.90
27164;DHT22;14685;50.618;7.024;2023-12-20T09:35:30;10.20;99.90
27164;DHT22;14685;50.618;7.024;2023-12-20T09:37:57;10.20;99.90
27164;DHT22;14685;50.618;7.024;2023-12-20T09:40:26;10.20;99.90
27164;DHT22;14685;50.618;7.024;2023-12-20T09:42:57;10.20;99.90
27164;DHT22;14685;50.618;7.024;2023-12-20T09:45:24;10.10;99.90
27164;DHT22;14685;50.618;7.024;2023-12-20T09:47:53;10.10;99.90
27164;DHT22;14685;50.618;7.024;2023-12-20T09:50:21;10.10;99.90
27164;DHT22;14685;50.618;7.024;2023-12-20T09:52:53;10.20;99.90
27164;DHT22;14685;50.618;7.024;2023-12-20T09:55:21;10.20;99.90
27164;DHT22;14685;50.618;7.024;2023-12-20T09:57:49;10.10;99.90
27164;DHT22;14685;50.618;7.024;2023-12-20T10:00:17;10.00;99.90
27164;DHT22;14685;50.618;7.024;2023-12-20T10:02:57;9.90;99.90
27164;DHT22;14685;50.618;7.024;2023-12-20T10:05:31;9.90;99.90
27164;DHT22;14685;50.618;7.024;2023-12-20T10:08:00;9.80;99.90
27164;DHT22;14685;50.618;7.024;2023-12-20T10:10:28;9.80;99.90
27164;DHT22;14685;50.618;7.024;2023-12-20T10:13:11;9.80;99.90
27164;DHT22;14685;50.618;7.024;2023-12-20T10:15:39;9.80;99.90
27164;DHT22;14685;50.618;7.024;2023-12-20T10:18:09;9.80;99.90
27164;DHT22;14685;50.618;7.024;2023-12-20T10:20:36;9.80;99.90
27164;DHT22;14685;50.618;7.024;2023-12-20T10:23:03;9.80;99.90
27164;DHT22;14685;50.618;7.024;2023-12-20T10:25:30;9.80;99.90
27164;DHT22;14685;50.618;7.024;2023-12-20T10:28:13;9.70;99.90
27164;DHT22;14685;50.618;7.024;2023-12-20T10:30:41;9.70;99.90
27164;DHT22;14685;50.618;7.024;2023-12-20T10:33:09;9.70;99.90
27164;DHT22;14685;50.618;7.024;2023-12-20T10:35:38;9.70;99.90
27164;DHT22;14685;50.618;7.024;2023-12-20T10:38:12;9.70;99.90
27164;DHT22;14685;50.618;7.024;2023-12-20T10:40:41;9.70;99.90
27164;DHT22;14685;50.618;7.024;2023-12-20T10:43:08;9.60;99.90
27164;DHT22;14685;50.618;7.024;2023-12-20T10:45:36;9.60;99.90
27164;DHT22;14685;50.618;7.024;2023-12-20T10:48:04;9.60;99.90
27164;DHT22;14685;50.618;7.024;2023-12-20T10:50:31;9.60;99.90
27164;DHT22;14685;50.618;7.024;2023-12-20T10:52:59;9.60;99.90
27164;DHT22;14685;50.618;7.024;2023-12-20T10:55:27;9.60;99.90
27164;DHT22;14685;50.618;7.024;2023-12-20T10:58:02;9.60;99.90
27164;DHT22;14685;50.618;7.024;2023-12-20T11:00:40;9.60;99.90
27164;DHT22;14685;50.618;7.024;2023-12-20T11:03:11;9.60;99.90
27164;DHT22;14685;50.618;7.024;2023-12-20T11:05:51;9.60;99.90
27164;DHT22;14685;50.618;7.024;2023-12-20T11:08:46;9.60;99.90
27164;DHT22;14685;50.618;7.024;2023-12-20T11:11:17;9.60;99.90
27164;DHT22;14685;50.618;7.024;2023-12-20T11:16:32;9.60;99.90
27164;DHT22;14685;50.618;7.024;2023-12-20T11:19:14;9.70;99.90
27164;DHT22;14685;50.618;7.024;2023-12-20T11:21:41;9.70;99.90
27164;DHT22;14685;50.618;7.024;2023-12-20T11:24:09;9.70;99.90
27164;DHT22;14685;50.618;7.024;2023-12-20T11:26:36;9.70;99.90
27164;DHT22;14685;50.618;7.024;2023-12-20T11:29:29;9.70;99.90
27164;DHT22;14685;50.618;7.024;2023-12-20T11:31:57;9.70;99.90
27164;DHT22;14685;50.618;7.024;2023-12-20T11:34:27;9.70;99.90
27164;DHT22;14685;50.618;7.024;2023-12-20T11:36:59;9.70;99.90
27164;DHT22;14685;50.618;7.024;2023-12-20T11:39:27;9.70;99.90
27164;DHT22;14685;50.618;7.024;2023-12-20T11:41:56;9.70;99.90
27164;DHT22;14685;50.618;7.024;2023-12-20T11:44:25;9.70;99.90
27164;DHT22;14685;50.618;7.024;2023-12-20T11:46:54;9.80;99.90
27164;DHT22;14685;50.618;7.024;2023-12-20T11:49:24;9.70;99.90
27164;DHT22;14685;50.618;7.024;2023-12-20T11:51:52;9.70;99.90
27164;DHT22;14685;50.618;7.024;2023-12-20T11:54:19;9.80;99.90
27164;DHT22;14685;50.618;7.024;2023-12-20T11:56:46;9.80;99.90
27164;DHT22;14685;50.618;7.024;2023-12-20T11:59:14;9.80;99.90
27164;DHT22;14685;50.618;7.024;2023-12-20T12:01:51;9.80;99.90
27164;DHT22;14685;50.618;7.024;2023-12-20T12:04:19;9.70;99.90
27164;DHT22;14685;50.618;7.024;2023-12-20T12:06:46;9.80;99.90
27164;DHT22;14685;50.618;7.024;2023-12-20T12:09:14;9.80;99.90
27164;DHT22;14685;50.618;7.024;2023-12-20T12:11:42;9.80;99.90
27164;DHT22;14685;50.618;7.024;2023-12-20T12:14:11;9.80;99.90
27164;DHT22;14685;50.618;7.024;2023-12-20T12:16:38;9.80;99.90
27164;DHT22;14685;50.618;7.024;2023-12-20T12:19:05;9.80;99.90
27164;DHT22;14685;50.618;7.024;2023-12-20T12:21:32;9.80;99.90
27164;DHT22;14685;50.618;7.024;2023-12-20T12:24:10;9.80;99.90
27164;DHT22;14685;50.618;7.024;2023-12-20T12:26:37;9.80;99.90
27164;DHT22;14685;50.618;7.024;2023-12-20T12:29:07;9.80;99.90
27164;DHT22;14685;50.618;7.024;2023-12-20T12:31:35;9.80;99.90
27164;DHT22;14685;50.618;7.024;2023-12-20T12:34:02;9.80;99.90
27164;DHT22;14685;50.618;7.024;2023-12-20T12:36:30;9.80;99.90
27164;DHT22;14685;50.618;7.024;2023-12-20T12:38:57;9.80;99.90
27164;DHT22;14685;50.618;7.024;2023-12-20T12:41:25;9.80;99.90
27164;DHT22;14685;50.618;7.024;2023-12-20T12:43:52;9.80;99.90
27164;DHT22;14685;50.618;7.024;2023-12-20T12:46:19;9.90;99.90
27164;DHT22;14685;50.618;7.024;2023-12-20T12:48:46;9.80;99.90
27164;DHT22;14685;50.618;7.024;2023-12-20T12:51:13;9.80;99.90
27164;DHT22;14685;50.618;7.024;2023-12-20T12:53:40;9.80;99.90
27164;DHT22;14685;50.618;7.024;2023-12-20T12:56:07;9.70;99.90
27164;DHT22;14685;50.618;7.024;2023-12-20T12:58:35;9.70;99.90
27164;DHT22;14685;50.618;7.024;2023-12-20T13:01:02;9.60;99.90
27164;DHT22;14685;50.618;7.024;2023-12-20T13:03:30;9.60;99.90
27164;DHT22;14685;50.618;7.024;2023-12-20T13:05:57;9.60;99.90
27164;DHT22;14685;50.618;7.024;2023-12-20T13:08:26;9.60;99.90
27164;DHT22;14685;50.618;7.024;2023-12-20T13:10:53;9.60;99.90
27164;DHT22;14685;50.618;7.024;2023-12-20T13:13:20;9.60;99.90
27164;DHT22;14685;50.618;7.024;2023-12-20T13:15:49;9.60;99.90
27164;DHT22;14685;50.618;7.024;2023-12-20T13:18:18;9.60;99.90
27164;DHT22;14685;50.618;7.024;2023-12-20T13:20:46;9.60;99.90
27164;DHT22;14685;50.618;7.024;2023-12-20T13:23:13;9.60;99.90
27164;DHT22;14685;50.618;7.024;2023-12-20T13:25:43;9.60;99.90
27164;DHT22;14685;50.618;7.024;2023-12-20T13:28:12;9.60;99.90
27164;DHT22;14685;50.618;7.024;2023-12-20T13:30:40;9.60;99.90
27164;DHT22;14685;50.618;7.024;2023-12-20T13:33:07;9.60;99.90
27164;DHT22;14685;50.618;7.024;2023-12-20T13:35:34;9.70;99.90
27164;DHT22;14685;50.618;7.024;2023-12-20T13:38:02;9.70;99.90
27164;DHT22;14685;50.618;7.024;2023-12-20T13:40:29;9.60;99.90
27164;DHT22;14685;50.618;7.024;2023-12-20T13:42:57;9.70;99.90
27164;DHT22;14685;50.618;7.024;2023-12-20T13:45:24;9.70;99.90
27164;DHT22;14685;50.618;7.024;2023-12-20T13:47:52;9.70;99.90
27164;DHT22;14685;50.618;7.024;2023-12-20T13:50:19;9.70;99.90
27164;DHT22;14685;50.618;7.024;2023-12-20T13:52:46;9.70;99.90
27164;DHT22;14685;50.618;7.024;2023-12-20T13:55:13;9.80;99.90
27164;DHT22;14685;50.618;7.024;2023-12-20T13:57:40;9.80;99.90
27164;DHT22;14685;50.618;7.024;2023-12-20T14:00:21;9.80;99.90
27164;DHT22;14685;50.618;7.024;2023-12-20T14:02:49;9.80;99.90
27164;DHT22;14685;50.618;7.024;2023-12-20T14:05:17;9.80;99.90
27164;DHT22;14685;50.618;7.024;2023-12-20T14:07:54;9.80;99.90
27164;DHT22;14685;50.618;7.024;2023-12-20T14:10:24;9.70;99.90
27164;DHT22;14685;50.618;7.024;2023-12-20T14:12:54;9.60;99.90
27164;DHT22;14685;50.618;7.024;2023-12-20T14:15:22;9.70;99.90
27164;DHT22;14685;50.618;7.024;2023-12-20T14:17:54;9.70;99.90
27164;DHT22;14685;50.618;7.024;2023-12-20T14:20:21;9.70;99.90
27164;DHT22;14685;50.618;7.024;2023-12-20T14:22:48;9.70;99.90
27164;DHT22;14685;50.618;7.024;2023-12-20T14:25:15;9.70;99.90
27164;DHT22;14685;50.618;7.024;2023-12-20T14:27:43;9.70;99.90
27164;DHT22;14685;50.618;7.024;2023-12-20T14:30:14;9.60;99.90
27164;DHT22;14685;50.618;7.024;2023-12-20T14:32:42;9.60;99.90
27164;DHT22;14685;50.618;7.024;2023-12-20T14:35:10;9.60;99.90
27164;DHT22;14685;50.618;7.024;2023-12-20T14:37:37;9.60;99.90
27164;DHT22;14685;50.618;7.024;2023-12-20T14:40:07;9.60;99.90
27164;DHT22;14685;50.618;7.024;2023-12-20T14:42:43;9.60;99.90
27164;DHT22;14685;50.618;7.024;2023-12-20T14:45:10;9.70;99.90
27164;DHT22;14685;50.618;7.024;2023-12-20T14:47:39;9.60;99.90
27164;DHT22;14685;50.618;7.024;2023-12-20T14:50:06;9.60;99.90
27164;DHT22;14685;50.618;7.024;2023-12-20T14:52:33;9.60;99.90
27164;DHT22;14685;50.618;7.024;2023-12-20T14:55:01;9.60;99.90
27164;DHT22;14685;50.618;7.024;2023-12-20T14:57:32;9.60;99.90
27164;DHT22;14685;50.618;7.024;2023-12-20T14:59:59;9.60;99.90
27164;DHT22;14685;50.618;7.024;2023-12-20T15:02:26;9.60;99.90
27164;DHT22;14685;50.618;7.024;2023-12-20T15:04:52;9.60;99.90
27164;DHT22;14685;50.618;7.024;2023-12-20T15:07:19;9.60;99.90
27164;DHT22;14685;50.618;7.024;2023-12-20T15:09:47;9.60;99.90
27164;DHT22;14685;50.618;7.024;2023-12-20T15:12:14;9.60;99.90
27164;DHT22;14685;50.618;7.024;2023-12-20T15:14:41;9.70;99.90
27164;DHT22;14685;50.618;7.024;2023-12-20T15:17:08;9.70;99.90
27164;DHT22;14685;50.618;7.024;2023-12-20T15:19:36;9.60;99.90
27164;DHT22;14685;50.618;7.024;2023-12-20T15:22:03;9.60;99.90
27164;DHT22;14685;50.618;7.024;2023-12-20T15:24:31;9.60;99.90
27164;DHT22;14685;50.618;7.024;2023-12-20T15:27:07;9.60;99.90
27164;DHT22;14685;50.618;7.024;2023-12-20T15:29:34;9.60;99.90
27164;DHT22;14685;50.618;7.024;2023-12-20T15:32:01;9.60;99.90
27164;DHT22;14685;50.618;7.024;2023-12-20T15:34:30;9.50;99.90
27164;DHT22;14685;50.618;7.024;2023-12-20T15:36:59;9.60;99.90
27164;DHT22;14685;50.618;7.024;2023-12-20T15:39:26;9.60;99.90
27164;DHT22;14685;50.618;7.024;2023-12-20T15:41:53;9.60;99.90
27164;DHT22;14685;50.618;7.024;2023-12-20T15:44:20;9.60;99.90
27164;DHT22;14685;50.618;7.024;2023-12-20T15:46:47;9.70;99.90
27164;DHT22;14685;50.618;7.024;2023-12-20T15:49:15;9.60;99.90
27164;DHT22;14685;50.618;7.024;2023-12-20T15:51:45;9.70;99.90